Time;durP1;ratioP1;P1;durP2;ratioP2;P2;SDS_P1;SDS_P2;PMS_P1;PMS_P2;Temp;Humidity;BMP_temperature;BMP_pressure;BME280_temperature;BME280_humidity;BME280_pressure;Samples;Min_cycle;Max_cycle;Signal;HPM_P1;HPM_P2
2021/12/18 00:01:02;;;;;;;948.73;846.97;;;4.60;99.90;;;;;;5015375;28;20545;-82
2021/12/18 00:03:29;;;;;;;954.13;853.40;;;4.70;99.90;;;;;;5015008;28;20460;-83
2021/12/18 00:05:55;;;;;;;951.70;851.00;;;4.80;99.90;;;;;;5014619;28;20476;-82
2021/12/18 00:08:22;;;;;;;931.80;831.47;;;4.90;99.90;;;;;;5014989;28;20532;-83
2021/12/18 00:10:52;;;;;;;914.30;815.17;;;4.90;99.90;;;;;;5015680;28;20456;-83
2021/12/18 00:13:18;;;;;;;912.17;813.77;;;5.00;99.90;;;;;;5015038;28;20881;-83
2021/12/18 00:15:45;;;;;;;885.47;785.93;;;5.00;99.90;;;;;;5014819;28;20484;-82
2021/12/18 00:18:12;;;;;;;896.83;798.77;;;5.20;99.90;;;;;;5016314;28;20449;-83
2021/12/18 00:20:39;;;;;;;898.13;800.97;;;5.20;99.90;;;;;;5017181;28;20537;-83
2021/12/18 00:23:07;;;;;;;905.70;808.93;;;5.30;99.90;;;;;;5016286;28;20472;-83
2021/12/18 00:25:34;;;;;;;925.40;824.80;;;5.30;99.90;;;;;;5016134;28;20466;-83
2021/12/18 00:28:02;;;;;;;931.67;831.67;;;5.30;99.90;;;;;;5016880;28;20468;-84
2021/12/18 00:30:30;;;;;;;939.20;839.40;;;5.30;99.90;;;;;;5016157;28;20454;-83
2021/12/18 00:32:57;;;;;;;939.87;843.03;;;5.30;99.90;;;;;;5017235;28;20535;-83
2021/12/18 00:35:24;;;;;;;948.97;852.13;;;5.30;99.90;;;;;;5014317;28;20473;-83
2021/12/18 00:37:50;;;;;;;950.27;851.20;;;5.20;99.90;;;;;;5015342;28;20457;-83
2021/12/18 00:40:22;;;;;;;947.90;849.07;;;5.20;99.90;;;;;;5015482;28;20453;-83
2021/12/18 00:42:51;;;;;;;935.87;838.00;;;5.40;99.90;;;;;;5016273;28;20548;-83
2021/12/18 00:45:20;;;;;;;961.57;858.43;;;5.40;99.90;;;;;;5015077;28;21009;-84
2021/12/18 00:47:47;;;;;;;972.47;871.17;;;5.40;99.90;;;;;;5015164;28;20457;-83
2021/12/18 00:50:17;;;;;;;912.23;815.37;;;5.50;99.90;;;;;;5014233;28;20972;-83
2021/12/18 00:52:44;;;;;;;877.70;782.30;;;5.50;99.90;;;;;;5014593;28;20460;-83
2021/12/18 00:55:11;;;;;;;891.83;798.20;;;5.60;99.90;;;;;;5014744;28;20483;-83
2021/12/18 00:57:38;;;;;;;895.60;801.87;;;5.50;99.90;;;;;;5015696;28;20461;-83
2021/12/18 01:00:07;;;;;;;901.27;806.27;;;5.50;99.90;;;;;;5015718;28;20872;-83
2021/12/18 01:02:37;;;;;;;898.23;803.83;;;5.60;99.90;;;;;;5014561;28;20866;-83
2021/12/18 01:05:05;;;;;;;895.27;800.37;;;5.60;99.90;;;;;;5014624;28;20472;-83
2021/12/18 01:07:31;;;;;;;910.63;815.20;;;5.60;99.90;;;;;;5015725;28;20511;-83
2021/12/18 01:10:06;;;;;;;919.97;824.33;;;5.60;99.90;;;;;;5016690;28;20460;-84
2021/12/18 01:12:38;;;;;;;928.77;833.40;;;5.50;99.90;;;;;;5014699;28;20834;-83
2021/12/18 01:15:16;;;;;;;918.10;823.10;;;5.60;99.90;;;;;;5015174;28;21080;-83
2021/12/18 01:23:14;;;;;;;941.40;844.10;;;5.60;99.90;;;;;;5019704;28;20436;-84
2021/12/18 01:25:41;;;;;;;955.43;856.07;;;5.60;99.90;;;;;;5018797;28;20477;-83
2021/12/18 01:28:08;;;;;;;954.47;855.80;;;5.70;99.90;;;;;;5019227;28;20902;-83
2021/12/18 01:30:35;;;;;;;942.80;844.40;;;5.70;99.90;;;;;;5019250;28;20453;-84
2021/12/18 01:33:03;;;;;;;929.53;833.07;;;5.70;99.90;;;;;;5019557;28;20467;-84
2021/12/18 01:35:30;;;;;;;924.60;826.90;;;5.80;99.90;;;;;;5018600;28;20989;-83
2021/12/18 01:37:57;;;;;;;912.97;817.20;;;5.90;99.90;;;;;;5019046;28;20484;-83
2021/12/18 01:40:25;;;;;;;906.20;809.70;;;5.90;99.90;;;;;;5019073;28;20453;-83
2021/12/18 01:45:44;;;;;;;885.10;790.87;;;6.10;99.90;;;;;;5018235;28;20496;-84
2021/12/18 01:51:22;;;;;;;873.30;779.37;;;6.20;99.90;;;;;;4981022;28;20517;-83
2021/12/18 01:53:52;;;;;;;867.60;775.70;;;6.20;99.90;;;;;;5019573;28;20449;-84
2021/12/18 01:56:19;;;;;;;866.83;775.50;;;6.30;99.90;;;;;;5019078;28;20477;-83
2021/12/18 01:58:46;;;;;;;860.33;769.70;;;6.30;99.90;;;;;;5019288;28;20845;-84
2021/12/18 02:01:13;;;;;;;851.87;762.87;;;6.40;99.90;;;;;;5019224;28;20536;-84
2021/12/18 02:03:42;;;;;;;847.37;758.70;;;6.40;99.90;;;;;;5019812;28;20795;-83
2021/12/18 02:06:09;;;;;;;847.50;761.30;;;6.40;99.90;;;;;;5018563;28;20472;-83
2021/12/18 02:08:38;;;;;;;849.27;761.73;;;6.40;99.90;;;;;;5017833;28;20454;-83
2021/12/18 02:11:14;;;;;;;843.63;758.23;;;6.40;99.90;;;;;;5018926;28;20457;-83
2021/12/18 02:14:04;;;;;;;848.27;764.10;;;6.40;99.90;;;;;;5019253;28;20572;-84
2021/12/18 02:22:15;;;;;;;835.20;752.20;;;6.50;99.90;;;;;;5008667;28;20554;-84
2021/12/18 02:24:42;;;;;;;839.43;756.10;;;6.50;99.90;;;;;;5018669;28;21001;-84
2021/12/18 02:27:09;;;;;;;859.90;776.17;;;6.60;99.90;;;;;;5018300;28;20974;-83
2021/12/18 02:29:38;;;;;;;854.10;771.00;;;6.50;99.90;;;;;;5017401;28;20456;-83
2021/12/18 02:32:06;;;;;;;864.97;780.67;;;6.60;99.90;;;;;;5016712;28;20448;-83
2021/12/18 02:34:35;;;;;;;862.27;778.47;;;6.60;99.90;;;;;;5017667;28;20540;-84
2021/12/18 02:37:05;;;;;;;862.60;779.90;;;6.60;99.90;;;;;;5018527;28;20876;-83
2021/12/18 02:40:43;;;;;;;847.50;765.50;;;6.60;99.90;;;;;;5018659;28;20461;-84
2021/12/18 02:42:33;;;;;;;835.80;755.90;;;6.60;99.90;;;;;;5018889;28;20484;-83
2021/12/18 02:45:00;;;;;;;828.97;749.57;;;6.60;99.90;;;;;;5018344;28;20500;-84
2021/12/18 02:47:27;;;;;;;838.83;757.40;;;6.70;99.90;;;;;;5018374;28;20453;-83
2021/12/18 02:49:54;;;;;;;848.73;768.27;;;6.70;99.90;;;;;;5017450;28;20445;-84
2021/12/18 02:52:27;;;;;;;840.77;761.80;;;6.60;99.90;;;;;;5018615;28;20453;-84
2021/12/18 02:54:55;;;;;;;832.80;753.80;;;6.70;99.90;;;;;;5017765;28;20479;-84
2021/12/18 02:57:22;;;;;;;823.47;745.47;;;6.80;99.90;;;;;;5017619;28;20478;-84
2021/12/18 02:59:50;;;;;;;819.63;742.87;;;6.80;99.90;;;;;;5018863;28;20453;-83
2021/12/18 03:02:19;;;;;;;822.43;745.93;;;6.90;99.90;;;;;;5017564;28;20507;-84
2021/12/18 03:04:52;;;;;;;818.53;743.00;;;6.90;99.90;;;;;;5018247;28;20897;-84
2021/12/18 03:07:22;;;;;;;816.17;741.67;;;7.00;99.90;;;;;;5018755;28;20872;-84
2021/12/18 03:19:02;;;;;;;820.40;746.53;;;7.00;99.90;;;;;;5018847;28;20479;-84
2021/12/18 03:23:47;;;;;;;812.10;743.10;;;7.00;99.90;;;;;;5011543;28;20463;-84
2021/12/18 03:26:14;;;;;;;813.67;745.23;;;7.00;99.90;;;;;;5018555;28;20465;-84
2021/12/18 03:28:43;;;;;;;808.00;740.33;;;7.00;99.90;;;;;;5018225;28;20449;-83
2021/12/18 03:31:10;;;;;;;814.83;747.30;;;7.00;99.90;;;;;;5017546;28;20449;-84
2021/12/18 03:33:37;;;;;;;795.53;728.63;;;7.00;99.90;;;;;;5018355;28;20457;-83
2021/12/18 03:36:06;;;;;;;798.43;732.20;;;7.00;99.90;;;;;;5018188;28;20489;-83
2021/12/18 03:38:33;;;;;;;806.70;740.00;;;7.10;99.90;;;;;;5018672;28;20523;-83
2021/12/18 03:41:00;;;;;;;801.30;736.17;;;7.10;99.90;;;;;;5017673;28;20457;-84
2021/12/18 03:43:26;;;;;;;799.33;734.93;;;7.10;99.90;;;;;;5017236;28;20461;-82
2021/12/18 03:45:54;;;;;;;805.50;739.60;;;7.10;99.90;;;;;;5015196;28;20473;-82
2021/12/18 03:48:21;;;;;;;810.07;742.23;;;7.10;99.90;;;;;;5017343;28;20515;-84
2021/12/18 03:50:49;;;;;;;802.30;736.40;;;7.10;99.90;;;;;;5018253;28;20968;-84
2021/12/18 03:53:16;;;;;;;802.77;737.27;;;7.10;99.90;;;;;;5017089;28;20552;-82
2021/12/18 03:55:43;;;;;;;800.43;736.70;;;7.10;99.90;;;;;;5010327;28;20470;-84
2021/12/18 03:58:09;;;;;;;794.40;731.90;;;7.10;99.90;;;;;;5014619;28;20464;-84
2021/12/18 04:00:36;;;;;;;800.80;736.87;;;7.10;99.90;;;;;;5004136;28;20450;-83
2021/12/18 04:03:05;;;;;;;798.57;735.20;;;7.10;99.90;;;;;;5011883;28;20453;-83
2021/12/18 04:05:32;;;;;;;795.97;733.03;;;7.00;99.90;;;;;;5017167;28;20476;-84
2021/12/18 04:08:08;;;;;;;793.70;730.70;;;7.00;99.90;;;;;;5002636;28;20966;-84
2021/12/18 04:10:36;;;;;;;791.97;730.03;;;7.10;99.90;;;;;;5002592;28;20452;-83
2021/12/18 04:13:03;;;;;;;787.53;724.67;;;7.10;99.90;;;;;;5017947;28;20453;-83
2021/12/18 04:15:30;;;;;;;788.73;727.50;;;7.10;99.90;;;;;;5017850;28;20472;-84
2021/12/18 04:17:57;;;;;;;797.67;734.67;;;7.10;99.90;;;;;;5018484;28;20681;-84
2021/12/18 04:20:25;;;;;;;802.07;737.70;;;7.10;99.90;;;;;;5018470;28;20460;-84
2021/12/18 04:22:53;;;;;;;803.37;737.90;;;7.10;99.90;;;;;;5012923;28;20825;-84
2021/12/18 04:25:20;;;;;;;821.50;754.90;;;7.10;99.90;;;;;;4997985;28;20474;-84
2021/12/18 04:27:46;;;;;;;834.33;765.37;;;7.10;99.90;;;;;;5007425;28;20449;-83
2021/12/18 04:30:13;;;;;;;834.23;765.20;;;7.20;99.90;;;;;;5001241;28;20942;-84
2021/12/18 04:32:40;;;;;;;830.40;760.70;;;7.20;99.90;;;;;;4997404;28;20461;-84
2021/12/18 04:35:08;;;;;;;838.93;769.10;;;7.10;99.90;;;;;;4997707;28;20485;-84
2021/12/18 04:37:36;;;;;;;823.47;755.17;;;7.10;99.90;;;;;;4997371;28;21052;-83
2021/12/18 04:40:03;;;;;;;829.10;759.70;;;7.10;99.90;;;;;;4997629;28;20832;-84
2021/12/18 04:42:30;;;;;;;821.20;752.23;;;7.10;99.90;;;;;;4996863;28;20462;-84
2021/12/18 04:44:57;;;;;;;820.43;751.37;;;7.20;99.90;;;;;;4997088;28;20470;-84
2021/12/18 04:47:24;;;;;;;815.70;749.50;;;7.20;99.90;;;;;;4996610;28;20454;-84
2021/12/18 04:49:50;;;;;;;814.13;747.03;;;7.10;99.90;;;;;;4997475;28;20461;-84
2021/12/18 04:52:17;;;;;;;809.97;743.47;;;7.10;99.90;;;;;;4996125;28;20457;-84
2021/12/18 04:54:45;;;;;;;812.50;747.37;;;7.10;99.90;;;;;;4998527;28;20998;-84
2021/12/18 04:57:12;;;;;;;815.47;749.07;;;7.10;99.90;;;;;;5000129;28;20477;-84
2021/12/18 04:59:43;;;;;;;815.97;750.23;;;7.10;99.90;;;;;;5008152;28;20468;-83
2021/12/18 05:02:11;;;;;;;810.10;743.77;;;7.20;99.90;;;;;;5020781;28;20463;-84
2021/12/18 05:04:38;;;;;;;811.90;745.90;;;7.20;99.90;;;;;;5019198;28;21067;-84
2021/12/18 05:07:05;;;;;;;812.97;746.47;;;7.10;99.90;;;;;;5020413;28;20453;-84
2021/12/18 05:09:31;;;;;;;807.90;742.70;;;7.20;99.90;;;;;;5020213;28;20456;-84
2021/12/18 05:11:59;;;;;;;809.17;742.17;;;7.20;99.90;;;;;;5019806;28;20463;-83
2021/12/18 05:14:26;;;;;;;809.37;742.60;;;7.10;99.90;;;;;;5020396;28;20491;-84
2021/12/18 05:16:53;;;;;;;837.00;769.70;;;7.20;99.90;;;;;;5019752;28;20485;-85
2021/12/18 05:19:20;;;;;;;849.37;780.17;;;7.20;99.90;;;;;;5019400;28;20453;-83
2021/12/18 05:21:49;;;;;;;849.17;780.87;;;7.20;99.90;;;;;;5025514;28;20532;-84
2021/12/18 05:24:15;;;;;;;849.77;781.47;;;7.10;99.90;;;;;;5020110;28;20456;-83
2021/12/18 05:26:42;;;;;;;844.87;777.60;;;7.10;99.90;;;;;;5019824;28;20476;-83
2021/12/18 05:29:10;;;;;;;869.50;801.20;;;7.00;99.90;;;;;;5020181;28;20457;-83
2021/12/18 05:31:37;;;;;;;845.50;780.73;;;7.00;99.90;;;;;;5018573;28;20457;-84
2021/12/18 05:34:05;;;;;;;841.90;777.10;;;6.90;99.90;;;;;;5018476;28;20460;-83
2021/12/18 05:36:36;;;;;;;838.23;774.63;;;7.00;99.90;;;;;;5018359;28;20835;-84
2021/12/18 05:39:05;;;;;;;836.17;772.37;;;6.90;99.90;;;;;;5017907;28;20456;-83
2021/12/18 05:41:32;;;;;;;842.43;776.00;;;6.80;99.90;;;;;;5019894;28;20828;-84
2021/12/18 05:43:59;;;;;;;841.60;776.20;;;6.80;99.90;;;;;;5021343;28;20446;-81
2021/12/18 05:46:28;;;;;;;834.53;769.57;;;6.80;99.90;;;;;;5019929;28;20472;-83
2021/12/18 05:48:55;;;;;;;831.67;767.87;;;6.80;99.90;;;;;;5011859;28;20453;-84
2021/12/18 05:51:22;;;;;;;823.80;761.17;;;6.80;99.90;;;;;;5018014;28;20453;-84
2021/12/18 05:53:49;;;;;;;828.07;764.20;;;6.80;99.90;;;;;;5018669;28;20453;-83
2021/12/18 05:56:16;;;;;;;833.83;770.93;;;6.80;99.90;;;;;;5018930;28;20469;-83
2021/12/18 05:58:43;;;;;;;832.10;769.80;;;6.80;99.90;;;;;;5019835;28;20461;-83
2021/12/18 06:01:12;;;;;;;829.90;766.60;;;6.80;99.90;;;;;;5020377;28;20456;-84
2021/12/18 06:03:40;;;;;;;850.67;785.17;;;6.80;99.90;;;;;;5018629;28;20472;-84
2021/12/18 06:06:07;;;;;;;838.53;774.53;;;6.80;99.90;;;;;;5018061;28;20481;-84
2021/12/18 06:08:35;;;;;;;842.00;775.90;;;6.80;99.90;;;;;;5039580;23;21026;-79
2021/12/18 06:11:07;;;;;;;844.90;778.53;;;6.80;99.90;;;;;;5016572;28;20495;-81
2021/12/18 06:13:35;;;;;;;853.40;786.50;;;6.80;99.90;;;;;;5016367;28;20829;-80
2021/12/18 06:16:01;;;;;;;848.70;781.70;;;6.70;99.90;;;;;;5016250;28;20445;-82
2021/12/18 06:18:28;;;;;;;850.27;782.90;;;6.80;99.90;;;;;;5016418;28;20847;-82
2021/12/18 06:20:56;;;;;;;840.70;773.63;;;6.80;99.90;;;;;;5016361;28;20457;-80
2021/12/18 06:23:23;;;;;;;840.63;772.57;;;6.80;99.90;;;;;;5016743;28;20453;-81
2021/12/18 06:25:49;;;;;;;842.30;773.47;;;6.80;99.90;;;;;;5016052;28;20457;-81
2021/12/18 06:28:16;;;;;;;845.60;777.17;;;6.70;99.90;;;;;;5016487;28;20492;-80
2021/12/18 06:30:43;;;;;;;844.57;774.87;;;6.70;99.90;;;;;;5017090;28;20460;-81
2021/12/18 06:33:10;;;;;;;848.83;778.60;;;6.70;99.90;;;;;;5016084;28;20454;-81
2021/12/18 06:35:37;;;;;;;855.03;783.17;;;6.70;99.90;;;;;;5015990;28;20453;-80
2021/12/18 06:38:05;;;;;;;844.83;772.23;;;6.70;99.90;;;;;;5017144;28;20477;-78
2021/12/18 06:40:32;;;;;;;845.30;771.93;;;6.70;99.90;;;;;;5017156;28;20465;-80
2021/12/18 06:42:59;;;;;;;851.03;776.80;;;6.70;99.90;;;;;;5019107;28;20453;-80
2021/12/18 06:45:26;;;;;;;852.17;778.60;;;6.70;99.90;;;;;;5018066;28;20466;-80
2021/12/18 06:47:54;;;;;;;854.57;779.50;;;6.70;99.90;;;;;;5006615;28;20470;-82
2021/12/18 06:50:21;;;;;;;848.90;773.30;;;6.70;99.90;;;;;;5017333;28;20469;-83
2021/12/18 06:52:48;;;;;;;869.53;791.57;;;6.70;99.90;;;;;;5016653;28;20988;-83
2021/12/18 06:55:17;;;;;;;874.07;795.30;;;6.70;99.90;;;;;;5017911;28;20453;-83
2021/12/18 06:57:44;;;;;;;879.77;800.20;;;6.70;99.90;;;;;;5017826;28;20483;-80
2021/12/18 07:00:14;;;;;;;880.63;800.70;;;6.70;99.90;;;;;;4999602;28;20476;-81
2021/12/18 07:02:42;;;;;;;873.97;792.20;;;6.70;99.90;;;;;;5016636;28;20445;-80
2021/12/18 07:05:10;;;;;;;888.80;806.40;;;6.70;99.90;;;;;;5015977;28;20453;-81
2021/12/18 07:07:37;;;;;;;892.40;809.23;;;6.70;99.90;;;;;;5016269;28;20457;-80
2021/12/18 07:10:04;;;;;;;905.40;818.80;;;6.70;99.90;;;;;;5016474;28;20485;-80
2021/12/18 07:12:32;;;;;;;916.10;826.90;;;6.70;99.90;;;;;;5014158;28;20450;-80
2021/12/18 07:14:59;;;;;;;924.00;835.80;;;6.70;99.90;;;;;;5015878;28;20472;-79
2021/12/18 07:17:26;;;;;;;934.63;844.83;;;6.70;99.90;;;;;;5015762;28;20481;-80
2021/12/18 07:19:53;;;;;;;944.70;852.70;;;6.70;99.90;;;;;;5017069;28;20496;-80
2021/12/18 07:22:19;;;;;;;942.93;851.80;;;6.70;99.90;;;;;;5016476;28;20457;-80
2021/12/18 07:24:46;;;;;;;950.27;857.63;;;6.70;99.90;;;;;;5016752;28;20960;-80
2021/12/18 07:27:13;;;;;;;967.87;872.13;;;6.60;99.90;;;;;;5016365;28;20468;-81
2021/12/18 07:29:41;;;;;;;963.67;866.73;;;6.70;99.90;;;;;;5017076;28;20480;-81
2021/12/18 07:32:08;;;;;;;965.63;868.30;;;6.60;99.90;;;;;;5016841;28;20846;-81
2021/12/18 07:34:35;;;;;;;968.57;870.70;;;6.60;99.90;;;;;;5016112;28;20461;-80
2021/12/18 07:37:02;;;;;;;967.80;871.70;;;6.70;99.90;;;;;;5015924;28;20473;-79
2021/12/18 07:39:28;;;;;;;969.47;873.50;;;6.70;99.90;;;;;;5015839;28;20477;-79
2021/12/18 07:41:55;;;;;;;980.83;879.23;;;6.60;99.90;;;;;;5015725;28;20468;-81
2021/12/18 07:44:22;;;;;;;979.00;875.73;;;6.70;99.90;;;;;;5015492;28;20461;-80
2021/12/18 07:46:50;;;;;;;979.80;879.40;;;6.70;99.90;;;;;;5015733;28;20461;-80
2021/12/18 07:49:17;;;;;;;981.97;880.10;;;6.60;99.90;;;;;;5015712;28;20473;-80
2021/12/18 07:51:43;;;;;;;992.17;887.03;;;6.70;99.90;;;;;;5015207;28;20461;-80
2021/12/18 07:54:10;;;;;;;995.20;891.77;;;6.70;99.90;;;;;;5013557;28;20536;-80
2021/12/18 07:56:37;;;;;;;999.60;891.80;;;6.70;99.90;;;;;;5016321;28;20460;-81
2021/12/18 07:59:04;;;;;;;1009.23;898.17;;;6.70;99.90;;;;;;5015721;28;20481;-81
2021/12/18 08:01:31;;;;;;;997.67;889.53;;;6.60;99.90;;;;;;4995651;28;20461;-81
2021/12/18 08:03:59;;;;;;;985.07;881.27;;;6.60;99.90;;;;;;4995961;28;20454;-79
2021/12/18 08:06:26;;;;;;;1002.23;892.47;;;6.70;99.90;;;;;;5014854;28;20460;-81
2021/12/18 08:08:52;;;;;;;1002.00;894.07;;;6.60;99.90;;;;;;5023550;28;20481;-82
2021/12/18 08:11:19;;;;;;;1006.30;897.10;;;6.60;99.90;;;;;;5024619;28;20456;-81
2021/12/18 08:13:46;;;;;;;1007.33;900.90;;;6.60;99.90;;;;;;5027979;28;20461;-81
2021/12/18 08:16:12;;;;;;;1019.23;894.33;;;6.70;99.90;;;;;;5023964;28;20981;-80
2021/12/18 08:18:39;;;;;;;1005.07;894.87;;;6.70;99.90;;;;;;5018969;28;20496;-80
2021/12/18 08:21:07;;;;;;;1011.70;904.27;;;6.70;99.90;;;;;;5019335;28;20476;-80
2021/12/18 08:23:34;;;;;;;1009.00;900.93;;;6.70;99.90;;;;;;5021980;28;20456;-80
2021/12/18 08:26:01;;;;;;;1042.35;927.25;;;6.60;99.90;;;;;;5016737;28;20462;-82
2021/12/18 08:28:27;;;;;;;1010.87;904.17;;;6.60;99.90;;;;;;5021708;28;20217;-81
2021/12/18 08:30:54;;;;;;;998.37;892.70;;;6.60;99.90;;;;;;5025112;28;20483;-81
2021/12/18 08:33:21;;;;;;;994.10;890.73;;;6.60;99.90;;;;;;5024447;28;20484;-80
2021/12/18 08:35:47;;;;;;;1002.93;897.30;;;6.60;99.90;;;;;;5019825;28;20456;-79
2021/12/18 08:38:16;;;;;;;998.13;890.97;;;6.60;99.90;;;;;;5018374;28;20896;-80
2021/12/18 08:40:43;;;;;;;997.70;891.30;;;6.60;99.90;;;;;;5018262;28;20831;-79
2021/12/18 08:43:10;;;;;;;1002.03;894.80;;;6.60;99.90;;;;;;5019026;28;20488;-79
2021/12/18 08:45:37;;;;;;;992.43;886.20;;;6.60;99.90;;;;;;5020662;28;20453;-79
2021/12/18 08:48:04;;;;;;;990.67;884.50;;;6.60;99.90;;;;;;5022714;28;20979;-79
2021/12/18 08:50:31;;;;;;;990.83;885.03;;;6.60;99.90;;;;;;5022987;28;20458;-81
2021/12/18 08:52:57;;;;;;;985.23;878.53;;;6.70;99.90;;;;;;5024307;28;20449;-82
2021/12/18 08:55:26;;;;;;;992.20;882.60;;;6.70;99.90;;;;;;5025656;28;20464;-80
2021/12/18 08:57:53;;;;;;;998.27;890.10;;;6.60;99.90;;;;;;5022075;28;20480;-83
2021/12/18 09:00:23;;;;;;;993.43;885.40;;;6.70;99.90;;;;;;5028929;28;20544;-80
2021/12/18 09:02:53;;;;;;;990.30;883.40;;;6.70;99.90;;;;;;5030408;28;20540;-82
2021/12/18 09:05:19;;;;;;;988.30;880.20;;;6.70;99.90;;;;;;5031617;28;20445;-82
2021/12/18 09:07:46;;;;;;;992.83;884.60;;;6.70;99.90;;;;;;5032928;28;20445;-81
2021/12/18 09:10:14;;;;;;;983.03;875.87;;;6.70;99.90;;;;;;5031332;28;20481;-81
2021/12/18 09:12:44;;;;;;;981.27;873.13;;;6.80;99.90;;;;;;5029102;28;20457;-81
2021/12/18 09:15:11;;;;;;;991.33;884.87;;;6.70;99.90;;;;;;5027652;28;20472;-80
2021/12/18 09:17:38;;;;;;;988.97;882.10;;;6.80;99.90;;;;;;5026591;28;20570;-80
2021/12/18 09:20:06;;;;;;;999.53;881.70;;;6.90;99.90;;;;;;5028241;28;20473;-81
2021/12/18 09:22:33;;;;;;;982.57;877.90;;;6.90;99.90;;;;;;5029531;28;20453;-81
2021/12/18 09:25:00;;;;;;;979.20;874.00;;;6.90;99.90;;;;;;5028879;28;20461;-80
2021/12/18 09:27:27;;;;;;;969.53;864.97;;;6.90;99.90;;;;;;5027288;28;20480;-80
2021/12/18 09:29:56;;;;;;;965.70;864.13;;;6.90;99.90;;;;;;5027149;28;20475;-81
2021/12/18 09:32:23;;;;;;;973.57;870.43;;;6.90;99.90;;;;;;5028383;28;20853;-81
2021/12/18 09:34:49;;;;;;;961.33;862.97;;;7.00;99.90;;;;;;5028928;28;20464;-83
2021/12/18 09:37:16;;;;;;;954.37;857.53;;;6.90;99.90;;;;;;5029203;28;20449;-80
2021/12/18 09:39:43;;;;;;;937.47;844.07;;;7.00;99.90;;;;;;5025446;28;20468;-81
2021/12/18 09:42:10;;;;;;;940.03;845.63;;;7.00;99.90;;;;;;5026320;28;20507;-80
2021/12/18 09:44:38;;;;;;;950.07;853.53;;;7.10;99.90;;;;;;5028490;28;20453;-80
2021/12/18 09:47:06;;;;;;;934.10;841.47;;;7.10;99.90;;;;;;5027780;28;20461;-80
2021/12/18 09:49:34;;;;;;;939.67;847.87;;;7.10;99.90;;;;;;5027549;28;20465;-80
2021/12/18 09:52:02;;;;;;;932.13;840.17;;;7.10;99.90;;;;;;5025372;28;20457;-83
2021/12/18 09:54:29;;;;;;;918.77;830.20;;;7.10;99.90;;;;;;5020975;28;20464;-84
2021/12/18 09:56:56;;;;;;;916.60;825.47;;;7.10;99.90;;;;;;5020092;28;20478;-83
2021/12/18 09:59:23;;;;;;;907.07;821.40;;;7.10;99.90;;;;;;5020010;28;21000;-82
2021/12/18 10:01:49;;;;;;;914.07;826.90;;;7.10;99.90;;;;;;5019407;28;20837;-82
2021/12/18 10:04:30;;;;;;;910.77;823.10;;;7.20;99.90;;;;;;5023168;28;20457;-81
2021/12/18 10:06:58;;;;;;;911.97;823.77;;;7.20;99.90;;;;;;5006361;28;20450;-82
2021/12/18 10:09:35;;;;;;;918.27;829.23;;;7.20;99.90;;;;;;5008109;28;20482;-81
2021/12/18 10:12:05;;;;;;;965.83;869.33;;;7.20;99.90;;;;;;5005665;28;20457;-81
2021/12/18 10:14:35;;;;;;;908.37;820.27;;;7.20;99.90;;;;;;5015166;28;20186;-81
2021/12/18 10:17:03;;;;;;;912.73;825.83;;;7.20;99.90;;;;;;5025158;28;20460;-81
2021/12/18 10:19:32;;;;;;;902.63;819.37;;;7.20;99.90;;;;;;5025413;28;20457;-81
2021/12/18 10:22:02;;;;;;;899.30;813.33;;;7.20;99.90;;;;;;5026760;28;20972;-81
2021/12/18 10:24:30;;;;;;;914.20;828.03;;;7.30;99.90;;;;;;5025302;28;20465;-80
2021/12/18 10:26:57;;;;;;;893.30;810.80;;;7.20;99.90;;;;;;5027100;28;20460;-82
2021/12/18 10:29:34;;;;;;;891.73;808.10;;;7.30;99.90;;;;;;5024050;28;20465;-81
2021/12/18 10:32:06;;;;;;;896.33;811.60;;;7.30;99.90;;;;;;5023670;28;20456;-81
2021/12/18 10:34:35;;;;;;;893.87;811.53;;;7.30;99.90;;;;;;5021223;28;20460;-82
2021/12/18 10:37:15;;;;;;;892.00;808.53;;;7.30;99.90;;;;;;5028330;28;20454;-81
2021/12/18 10:39:44;;;;;;;885.27;801.33;;;7.30;99.90;;;;;;5026301;28;20499;-84
2021/12/18 10:42:22;;;;;;;884.70;803.20;;;7.40;99.90;;;;;;5029086;28;20488;-81
2021/12/18 10:45:05;;;;;;;867.67;786.17;;;7.30;99.90;;;;;;5025372;28;20449;-81
2021/12/18 10:48:01;;;;;;;859.03;778.67;;;7.40;99.90;;;;;;5030062;28;20987;-82
2021/12/18 10:50:33;;;;;;;864.27;783.90;;;7.30;99.90;;;;;;5002560;28;20502;-80
2021/12/18 10:53:06;;;;;;;873.87;793.13;;;7.40;99.90;;;;;;5027207;28;21101;-81
2021/12/18 10:55:41;;;;;;;864.03;782.07;;;7.40;99.90;;;;;;5021226;28;20449;-81
2021/12/18 10:58:09;;;;;;;865.87;784.27;;;7.40;99.90;;;;;;5009074;28;20483;-82
2021/12/18 11:00:40;;;;;;;852.23;772.07;;;7.30;99.90;;;;;;5022656;28;20457;-81
2021/12/18 11:03:18;;;;;;;866.20;783.50;;;7.40;99.90;;;;;;5023684;28;20450;-81
2021/12/18 11:06:06;;;;;;;862.37;780.67;;;7.40;99.90;;;;;;5028052;28;20456;-80
2021/12/18 11:08:33;;;;;;;851.70;773.63;;;7.40;99.90;;;;;;5025046;28;20489;-82
2021/12/18 11:13:48;;;;;;;847.60;769.90;;;7.40;99.90;;;;;;5027895;28;20441;-82
2021/12/18 11:16:16;;;;;;;844.37;768.17;;;7.50;99.90;;;;;;5026561;28;20445;-81
2021/12/18 11:18:43;;;;;;;837.17;759.47;;;7.50;99.90;;;;;;5027215;28;20489;-81
2021/12/18 11:21:11;;;;;;;839.40;762.53;;;7.50;99.90;;;;;;5022436;28;20457;-81
2021/12/18 11:23:40;;;;;;;843.37;764.00;;;7.50;99.90;;;;;;5024662;28;20453;-81
2021/12/18 11:26:08;;;;;;;839.00;761.10;;;7.50;99.90;;;;;;5024515;28;20479;-82
2021/12/18 11:28:38;;;;;;;835.20;757.80;;;7.60;99.90;;;;;;5025866;28;20484;-82
2021/12/18 11:31:04;;;;;;;819.57;745.53;;;7.60;99.90;;;;;;5024416;28;20457;-81
2021/12/18 11:33:32;;;;;;;821.47;747.60;;;7.60;99.90;;;;;;5025103;28;20466;-81
2021/12/18 11:36:00;;;;;;;815.07;740.47;;;7.60;99.90;;;;;;5025742;28;20460;-81
2021/12/18 11:38:28;;;;;;;820.13;745.23;;;7.60;99.90;;;;;;5025338;28;20871;-80
2021/12/18 11:40:56;;;;;;;824.67;751.00;;;7.60;99.90;;;;;;5028937;28;20509;-82
2021/12/18 11:43:35;;;;;;;819.73;746.40;;;7.60;99.90;;;;;;5027481;28;20463;-81
2021/12/18 11:46:03;;;;;;;809.80;738.33;;;7.60;99.90;;;;;;5025872;28;20452;-81
2021/12/18 11:48:55;;;;;;;822.10;750.07;;;7.60;99.90;;;;;;5025333;28;20505;-81
2021/12/18 11:51:21;;;;;;;826.30;754.97;;;7.60;99.90;;;;;;5024180;28;20449;-81
2021/12/18 11:53:49;;;;;;;832.23;759.33;;;7.70;99.90;;;;;;5023870;28;20711;-80
2021/12/18 11:56:16;;;;;;;829.53;755.80;;;7.60;99.90;;;;;;5023633;28;20449;-81
2021/12/18 11:58:45;;;;;;;828.50;754.37;;;7.70;99.90;;;;;;5023178;28;20488;-81
2021/12/18 12:01:18;;;;;;;801.73;729.83;;;7.70;99.90;;;;;;5023834;28;20480;-81
2021/12/18 12:03:54;;;;;;;803.13;733.30;;;7.70;99.90;;;;;;5022700;28;20453;-80
2021/12/18 12:06:27;;;;;;;813.70;742.20;;;7.70;99.90;;;;;;5024164;28;20463;-80
2021/12/18 12:09:28;;;;;;;808.37;736.10;;;7.70;99.90;;;;;;5038309;23;20476;-85
2021/12/18 12:11:58;;;;;;;809.60;738.40;;;7.60;99.90;;;;;;5032156;28;20447;-86
2021/12/18 12:14:26;;;;;;;805.27;734.77;;;7.70;99.90;;;;;;5029536;28;20456;-86
2021/12/18 12:17:06;;;;;;;806.37;734.13;;;7.60;99.90;;;;;;5012078;28;20453;-86
2021/12/18 12:19:46;;;;;;;808.20;735.97;;;7.60;99.90;;;;;;5013716;28;20473;-86
2021/12/18 12:22:31;;;;;;;802.50;730.50;;;7.60;99.90;;;;;;5012297;28;20449;-86
2021/12/18 12:25:01;;;;;;;812.93;741.70;;;7.70;99.90;;;;;;4998985;28;20450;-86
2021/12/18 12:27:31;;;;;;;815.23;742.60;;;7.70;99.90;;;;;;4992463;28;20478;-85
2021/12/18 12:30:00;;;;;;;797.57;727.60;;;7.80;99.90;;;;;;5004641;28;20472;-86
2021/12/18 12:32:29;;;;;;;787.20;718.87;;;7.80;99.90;;;;;;5012261;28;20461;-86
2021/12/18 12:35:00;;;;;;;786.93;719.27;;;7.80;99.90;;;;;;5000183;28;20540;-86
2021/12/18 12:37:39;;;;;;;775.00;708.20;;;7.80;99.90;;;;;;4993072;28;20512;-86
2021/12/18 12:40:11;;;;;;;783.17;715.13;;;7.90;99.90;;;;;;5001625;28;21014;-86
2021/12/18 12:42:40;;;;;;;788.57;721.57;;;8.00;99.90;;;;;;5011725;28;20459;-86
2021/12/18 12:45:12;;;;;;;792.73;727.30;;;8.00;99.90;;;;;;5011362;28;20453;-86
2021/12/18 12:47:41;;;;;;;770.47;706.77;;;8.00;99.90;;;;;;5011922;28;20457;-85
2021/12/18 12:50:30;;;;;;;770.00;707.80;;;8.00;99.90;;;;;;5011525;28;20764;-86
2021/12/18 12:52:59;;;;;;;771.10;711.90;;;7.90;99.90;;;;;;5007424;28;21015;-86
2021/12/18 12:55:30;;;;;;;771.27;710.37;;;7.90;99.90;;;;;;5004427;28;20894;-86